Time;durP1;ratioP1;P1;durP2;ratioP2;P2;SDS_P1;SDS_P2;PMS_P1;PMS_P2;Temp;Humidity;BMP_temperature;BMP_pressure;BME280_temperature;BME280_humidity;BME280_pressure;Samples;Min_cycle;Max_cycle;Signal;HPM_P1;HPM_P2
2021/07/20 00:02:35;;;;;;;12.97;4.90;;;;;;;-145.18;100.00;60484.78;5085367;28;20028;-71
2021/07/20 00:05:01;;;;;;;14.60;5.23;;;;;;;-145.18;100.00;60484.78;5085283;28;20032;-71
2021/07/20 00:07:27;;;;;;;12.70;5.10;;;;;;;-145.18;100.00;60484.78;5094207;28;20015;-71
2021/07/20 00:09:52;;;;;;;14.67;5.20;;;;;;;-145.18;100.00;60484.78;5085868;28;20035;-71
2021/07/20 00:12:18;;;;;;;18.33;5.67;;;;;;;-145.18;100.00;60484.78;5092433;28;20031;-71
2021/07/20 00:14:43;;;;;;;14.90;5.03;;;;;;;-145.18;100.00;60484.78;5087804;28;20439;-71
2021/07/20 00:17:09;;;;;;;16.67;4.97;;;;;;;-145.18;100.00;60484.78;5091318;28;20543;-71
2021/07/20 00:19:34;;;;;;;12.77;4.60;;;;;;;-145.18;100.00;60484.78;5087869;28;20031;-71
2021/07/20 00:22:00;;;;;;;14.23;5.70;;;;;;;-145.18;100.00;60484.78;5090136;28;20040;-71
2021/07/20 00:24:26;;;;;;;16.63;5.30;;;;;;;-145.18;100.00;60484.78;5087922;28;20035;-71
2021/07/20 00:26:51;;;;;;;17.33;5.90;;;;;;;-145.18;100.00;60484.78;5088700;28;20059;-71
2021/07/20 00:29:17;;;;;;;17.17;5.40;;;;;;;-145.18;100.00;60484.78;5089417;28;20545;-71
2021/07/20 00:31:42;;;;;;;15.13;5.60;;;;;;;-145.18;100.00;60484.78;5089528;28;20023;-71
2021/07/20 00:34:08;;;;;;;10.90;4.30;;;;;;;-145.18;100.00;60484.78;5087727;28;20032;-71
2021/07/20 00:36:34;;;;;;;11.97;4.13;;;;;;;-145.18;100.00;60484.78;5086358;28;20094;-71
2021/07/20 00:38:59;;;;;;;9.70;4.03;;;;;;;-145.18;100.00;60484.78;5087550;28;20036;-71
2021/07/20 00:41:25;;;;;;;12.23;4.70;;;;;;;-145.18;100.00;60484.78;5085284;28;20054;-71
2021/07/20 00:43:50;;;;;;;16.83;5.03;;;;;;;-145.18;100.00;60484.78;5087335;28;20024;-71
2021/07/20 00:46:16;;;;;;;11.37;4.70;;;;;;;-145.18;100.00;60484.78;5085584;28;20381;-71
2021/07/20 00:48:41;;;;;;;13.13;5.33;;;;;;;-145.18;100.00;60484.78;5085881;28;20374;-71
2021/07/20 00:51:07;;;;;;;15.10;4.80;;;;;;;-145.18;100.00;60484.78;5085126;28;20031;-71
2021/07/20 00:53:32;;;;;;;12.67;4.80;;;;;;;-145.18;100.00;60484.78;5098298;28;20036;-71
2021/07/20 00:55:58;;;;;;;18.53;5.60;;;;;;;-145.18;100.00;60484.78;5084948;28;20088;-71
2021/07/20 00:58:24;;;;;;;22.80;6.07;;;;;;;-145.18;100.00;60484.78;5097343;28;20039;-71
2021/07/20 01:00:52;;;;;;;18.73;5.37;;;;;;;-145.18;100.00;60484.78;5085183;28;20032;-71
2021/07/20 01:03:18;;;;;;;16.20;5.27;;;;;;;-145.18;100.00;60484.78;5092606;28;20024;-71
2021/07/20 01:05:44;;;;;;;13.70;5.13;;;;;;;-145.18;100.00;60484.78;5082713;28;20073;-71
2021/07/20 01:08:10;;;;;;;14.90;4.97;;;;;;;-145.18;100.00;60484.78;5088132;28;20764;-71
2021/07/20 01:10:37;;;;;;;14.03;5.40;;;;;;;-145.18;100.00;60484.78;5084658;28;20031;-71
2021/07/20 01:13:03;;;;;;;17.27;5.67;;;;;;;-145.18;100.00;60484.78;5084856;28;20028;-71
2021/07/20 01:15:30;;;;;;;23.03;6.03;;;;;;;-145.18;100.00;60484.78;5073680;28;20036;-71
2021/07/20 01:17:57;;;;;;;13.63;5.47;;;;;;;-145.18;100.00;60484.78;5093134;28;20032;-71
2021/07/20 01:20:28;;;;;;;14.90;5.27;;;;;;;-145.18;100.00;60484.78;5084291;28;20066;-71
2021/07/20 01:23:18;;;;;;;16.10;5.30;;;;;;;-145.18;100.00;60484.78;5092335;28;20024;-71
2021/07/20 01:25:44;;;;;;;17.63;5.83;;;;;;;-145.18;100.00;60484.78;5076611;28;20030;-71
2021/07/20 01:28:17;;;;;;;16.70;6.17;;;;;;;-145.18;100.00;60484.78;5091377;28;20024;-71
2021/07/20 01:30:44;;;;;;;17.60;6.27;;;;;;;-145.18;100.00;60484.78;5084169;28;20599;-71
2021/07/20 01:33:11;;;;;;;16.97;6.50;;;;;;;-145.18;100.00;60484.78;5085249;28;20122;-71
2021/07/20 01:35:40;;;;;;;23.73;7.10;;;;;;;-145.18;100.00;60484.78;5083588;28;20047;-71
2021/07/20 01:38:08;;;;;;;23.37;6.50;;;;;;;-145.18;100.00;60484.78;5088861;28;20528;-71
2021/07/20 01:40:37;;;;;;;21.37;6.23;;;;;;;-145.18;100.00;60484.78;5083975;28;20030;-71
2021/07/20 01:43:05;;;;;;;15.13;5.63;;;;;;;-145.18;100.00;60484.78;5087693;28;20470;-71
2021/07/20 01:45:32;;;;;;;18.77;6.13;;;;;;;-145.18;100.00;60484.78;5083732;28;20024;-71
2021/07/20 01:47:59;;;;;;;16.10;5.47;;;;;;;-145.18;100.00;60484.78;5086556;28;20031;-71
2021/07/20 01:50:25;;;;;;;18.37;6.00;;;;;;;-145.18;100.00;60484.78;5083865;28;20024;-71
2021/07/20 01:52:53;;;;;;;15.77;6.60;;;;;;;-145.18;100.00;60484.78;5085271;28;20081;-71
2021/07/20 01:55:22;;;;;;;16.80;6.13;;;;;;;-145.18;100.00;60484.78;5083339;28;20558;-71
2021/07/20 01:57:47;;;;;;;18.67;6.53;;;;;;;-145.18;100.00;60484.78;5084001;28;20027;-71
2021/07/20 02:00:17;;;;;;;16.97;5.70;;;;;;;-145.18;100.00;60484.78;5083784;28;20599;-71
2021/07/20 02:08:27;;;;;;;16.97;6.13;;;;;;;-145.18;100.00;60484.78;5084781;28;20043;-71
2021/07/20 02:11:05;;;;;;;20.50;6.80;;;;;;;-145.18;100.00;60484.78;5083890;28;20031;-71
2021/07/20 02:13:41;;;;;;;17.63;5.83;;;;;;;-145.18;100.00;60484.78;5083652;28;20072;-72
2021/07/20 02:16:10;;;;;;;16.13;6.17;;;;;;;-145.18;100.00;60484.78;5080551;28;20028;-71
2021/07/20 02:18:37;;;;;;;22.13;5.90;;;;;;;-145.18;100.00;60484.78;5085623;28;20028;-71
2021/07/20 02:21:06;;;;;;;18.57;6.43;;;;;;;-145.18;100.00;60484.78;5083330;28;20085;-71
2021/07/20 02:23:33;;;;;;;17.90;6.13;;;;;;;-145.18;100.00;60484.78;5084942;28;20039;-72
2021/07/20 02:26:00;;;;;;;17.00;6.07;;;;;;;-145.18;100.00;60484.78;5083363;28;20032;-71
2021/07/20 02:28:26;;;;;;;16.63;6.33;;;;;;;-145.18;100.00;60484.78;5084955;28;20031;-72
2021/07/20 02:30:52;;;;;;;17.17;6.13;;;;;;;-145.18;100.00;60484.78;5083257;28;20028;-72
2021/07/20 02:33:20;;;;;;;13.57;5.63;;;;;;;-145.18;100.00;60484.78;5083718;28;20133;-72
2021/07/20 02:35:46;;;;;;;14.47;5.37;;;;;;;-145.18;100.00;60484.78;5083536;28;20034;-72
2021/07/20 02:38:12;;;;;;;17.10;6.33;;;;;;;-145.18;100.00;60484.78;5092531;28;20583;-72
2021/07/20 02:40:39;;;;;;;15.33;5.90;;;;;;;-145.18;100.00;60484.78;5083232;28;20028;-72
2021/07/20 02:43:04;;;;;;;20.10;6.47;;;;;;;-145.18;100.00;60484.78;5086819;28;20472;-72
2021/07/20 02:45:34;;;;;;;14.97;5.37;;;;;;;-145.18;100.00;60484.78;5083098;28;20090;-72
2021/07/20 02:48:02;;;;;;;24.17;6.50;;;;;;;-145.18;100.00;60484.78;5084114;28;20073;-72
2021/07/20 02:50:30;;;;;;;16.47;6.00;;;;;;;-145.18;100.00;60484.78;5083142;28;20050;-72
2021/07/20 02:52:56;;;;;;;14.43;5.43;;;;;;;-145.18;100.00;60484.78;5084506;28;20028;-72
2021/07/20 02:55:23;;;;;;;18.47;6.37;;;;;;;-145.18;100.00;60484.78;5082636;28;20077;-72
2021/07/20 02:57:49;;;;;;;14.83;5.77;;;;;;;-145.18;100.00;60484.78;5087304;28;20032;-72
2021/07/20 03:00:15;;;;;;;21.00;6.00;;;;;;;-145.18;100.00;60484.78;5082785;28;20361;-72
2021/07/20 03:02:45;;;;;;;18.53;6.80;;;;;;;-145.18;100.00;60484.78;5087205;28;20016;-72
2021/07/20 03:05:12;;;;;;;16.63;6.30;;;;;;;-145.18;100.00;60484.78;5082722;28;20060;-72
2021/07/20 03:07:42;;;;;;;20.50;6.67;;;;;;;-145.18;100.00;60484.78;5087935;28;20051;-72
2021/07/20 03:10:10;;;;;;;19.73;6.13;;;;;;;-145.18;100.00;60484.78;5079391;28;20051;-72
2021/07/20 03:12:37;;;;;;;14.70;6.13;;;;;;;-145.18;100.00;60484.78;5084016;28;20102;-72
2021/07/20 03:15:03;;;;;;;15.73;6.47;;;;;;;-145.18;100.00;60484.78;5082031;28;20139;-72
2021/07/20 03:17:31;;;;;;;14.50;5.70;;;;;;;-145.18;100.00;60484.78;5085786;28;20480;-72
2021/07/20 03:19:58;;;;;;;17.70;6.47;;;;;;;-145.18;100.00;60484.78;5082217;28;20031;-72
2021/07/20 03:22:28;;;;;;;16.03;5.60;;;;;;;-145.18;100.00;60484.78;5084237;28;20048;-72
2021/07/20 03:24:55;;;;;;;16.57;5.53;;;;;;;-145.18;100.00;60484.78;5082954;28;20047;-72
2021/07/20 03:27:22;;;;;;;15.73;5.90;;;;;;;-145.18;100.00;60484.78;5084110;28;20020;-72
2021/07/20 03:29:49;;;;;;;15.53;5.70;;;;;;;-145.18;100.00;60484.78;5082562;28;20028;-72
2021/07/20 03:32:16;;;;;;;16.60;6.07;;;;;;;-145.18;100.00;60484.78;5087246;28;20089;-72
2021/07/20 03:34:44;;;;;;;14.77;5.93;;;;;;;-145.18;100.00;60484.78;5086767;28;20488;-72
2021/07/20 03:37:11;;;;;;;13.37;5.50;;;;;;;-145.18;100.00;60484.78;5087864;28;20036;-72
2021/07/20 03:39:38;;;;;;;12.50;5.03;;;;;;;-145.18;100.00;60484.78;5086522;28;20035;-72
2021/07/20 03:42:05;;;;;;;13.40;5.50;;;;;;;-145.18;100.00;60484.78;5091231;28;20032;-72
2021/07/20 03:44:32;;;;;;;12.23;5.00;;;;;;;-145.18;100.00;60484.78;5087435;28;20035;-72
2021/07/20 03:46:58;;;;;;;12.83;5.13;;;;;;;-145.18;100.00;60484.78;5087873;28;20035;-72
2021/07/20 03:49:27;;;;;;;14.70;5.00;;;;;;;-145.18;100.00;60484.78;5085971;28;20081;-72
2021/07/20 03:52:00;;;;;;;13.03;5.50;;;;;;;-145.18;100.00;60484.78;5088037;28;20141;-72
2021/07/20 03:54:28;;;;;;;14.37;5.47;;;;;;;-145.18;100.00;60484.78;5085878;28;20043;-72
2021/07/20 03:56:56;;;;;;;17.73;5.27;;;;;;;-145.18;100.00;60484.78;5089493;28;20110;-72
2021/07/20 03:59:24;;;;;;;11.63;4.90;;;;;;;-145.18;100.00;60484.78;5088745;28;20028;-72
2021/07/20 04:01:52;;;;;;;13.33;5.57;;;;;;;-145.18;100.00;60484.78;5086666;28;20039;-72
2021/07/20 04:04:21;;;;;;;17.43;5.73;;;;;;;-145.18;100.00;60484.78;5085485;28;20099;-72
2021/07/20 04:06:48;;;;;;;18.90;6.77;;;;;;;-145.18;100.00;60484.78;5087511;28;20047;-72
2021/07/20 04:09:14;;;;;;;12.93;5.47;;;;;;;-145.18;100.00;60484.78;5085693;28;20031;-72
2021/07/20 04:11:41;;;;;;;14.07;5.37;;;;;;;-145.18;100.00;60484.78;5087820;28;20071;-72
2021/07/20 04:14:11;;;;;;;11.27;4.60;;;;;;;-145.18;100.00;60484.78;5084861;28;20093;-72
2021/07/20 04:16:38;;;;;;;14.93;5.17;;;;;;;-145.18;100.00;60484.78;5086086;28;20032;-72
2021/07/20 04:19:04;;;;;;;11.07;4.50;;;;;;;-145.18;100.00;60484.78;5087441;28;20028;-72
2021/07/20 04:21:29;;;;;;;14.67;4.67;;;;;;;-145.18;100.00;60484.78;5084922;28;20028;-72
2021/07/20 04:23:55;;;;;;;14.60;4.87;;;;;;;-145.18;100.00;60484.78;5083943;28;20038;-72
2021/07/20 04:26:22;;;;;;;14.27;5.00;;;;;;;-145.18;100.00;60484.78;5085878;28;20020;-72
2021/07/20 04:29:11;;;;;;;13.40;4.60;;;;;;;-145.18;100.00;60484.78;5084671;28;20097;-72
2021/07/20 04:31:43;;;;;;;14.23;5.30;;;;;;;-145.18;100.00;60484.78;5085884;28;20039;-72
2021/07/20 04:34:12;;;;;;;14.45;5.28;;;;;;;-145.18;100.00;60484.78;5095899;28;20031;-72
2021/07/20 04:36:39;;;;;;;14.47;4.93;;;;;;;-145.18;100.00;60484.78;5086249;28;20424;-72
2021/07/20 04:39:04;;;;;;;18.27;5.00;;;;;;;-145.18;100.00;60484.78;5094841;28;20038;-72
2021/07/20 04:41:31;;;;;;;12.80;4.90;;;;;;;-145.18;100.00;60484.78;5084184;28;20396;-72
2021/07/20 04:43:56;;;;;;;15.10;4.57;;;;;;;-145.18;100.00;60484.78;5085231;28;20090;-72
2021/07/20 04:46:23;;;;;;;15.30;4.97;;;;;;;-145.18;100.00;60484.78;5085291;28;20947;-72
2021/07/20 04:48:49;;;;;;;13.67;5.07;;;;;;;-145.18;100.00;60484.78;5084613;28;20512;-72
2021/07/20 04:51:15;;;;;;;14.07;5.50;;;;;;;-145.18;100.00;60484.78;5084888;28;20035;-72
2021/07/20 04:53:42;;;;;;;14.37;5.23;;;;;;;-145.18;100.00;60484.78;5092702;28;20024;-72
2021/07/20 04:56:08;;;;;;;12.83;4.77;;;;;;;-145.18;100.00;60484.78;5085003;28;20107;-72
2021/07/20 04:58:34;;;;;;;11.63;4.50;;;;;;;-145.18;100.00;60484.78;5091799;28;20119;-72
2021/07/20 05:01:01;;;;;;;22.30;5.07;;;;;;;-145.18;100.00;60484.78;5084839;28;20078;-72
2021/07/20 05:03:30;;;;;;;12.00;4.83;;;;;;;-145.18;100.00;60484.78;5083060;28;20579;-72
2021/07/20 05:05:57;;;;;;;12.83;4.80;;;;;;;-145.18;100.00;60484.78;5083166;28;20069;-72
2021/07/20 05:08:23;;;;;;;14.63;5.27;;;;;;;-145.18;100.00;60484.78;5089219;28;20575;-72
2021/07/20 05:10:52;;;;;;;17.87;5.50;;;;;;;-145.18;100.00;60484.78;5085007;28;20409;-72
2021/07/20 05:13:20;;;;;;;16.20;5.83;;;;;;;-145.18;100.00;60484.78;5087143;28;20090;-74
2021/07/20 05:15:49;;;;;;;12.63;4.73;;;;;;;-145.18;100.00;60484.78;5084578;28;20122;-72
2021/07/20 05:18:15;;;;;;;15.93;5.30;;;;;;;-145.18;100.00;60484.78;5074055;28;20032;-72
2021/07/20 05:20:43;;;;;;;15.80;5.03;;;;;;;-145.18;100.00;60484.78;5084873;28;20103;-72
2021/07/20 05:23:13;;;;;;;15.33;5.40;;;;;;;-145.18;100.00;60484.78;5084789;28;20786;-72
2021/07/20 05:25:39;;;;;;;14.40;4.97;;;;;;;-145.18;100.00;60484.78;5084576;28;20024;-72
2021/07/20 05:28:09;;;;;;;14.23;5.57;;;;;;;-145.18;100.00;60484.78;5096571;28;20079;-72
2021/07/20 05:30:35;;;;;;;14.00;4.80;;;;;;;-145.18;100.00;60484.78;5084583;28;20028;-72
2021/07/20 05:33:01;;;;;;;13.07;4.90;;;;;;;-145.18;100.00;60484.78;5088359;28;20039;-72
2021/07/20 05:35:27;;;;;;;15.20;5.20;;;;;;;-145.18;100.00;60484.78;5084434;28;20028;-72
2021/07/20 05:37:53;;;;;;;13.00;5.40;;;;;;;-145.18;100.00;60484.78;5087892;28;20028;-72
2021/07/20 05:40:21;;;;;;;15.57;5.30;;;;;;;-145.18;100.00;60484.78;5084609;28;20035;-71
2021/07/20 05:42:47;;;;;;;13.60;5.13;;;;;;;-145.18;100.00;60484.78;5085987;28;20105;-72
2021/07/20 05:45:14;;;;;;;19.17;5.20;;;;;;;-145.18;100.00;60484.78;5084149;28;20035;-72
2021/07/20 05:47:48;;;;;;;15.63;4.53;;;;;;;-145.18;100.00;60484.78;5084846;28;20103;-74
2021/07/20 05:50:15;;;;;;;17.33;5.03;;;;;;;-145.18;100.00;60484.78;5085047;28;20055;-69
2021/07/20 05:52:44;;;;;;;12.83;4.60;;;;;;;-145.18;100.00;60484.78;5095203;28;20120;-69
2021/07/20 05:55:11;;;;;;;13.00;5.20;;;;;;;-145.18;100.00;60484.78;5088388;28;20028;-69
2021/07/20 05:57:38;;;;;;;15.60;4.77;;;;;;;-145.18;100.00;60484.78;5094123;28;20155;-69
2021/07/20 06:00:06;;;;;;;14.10;5.10;;;;;;;-145.18;100.00;60484.78;5086590;28;20251;-69
2021/07/20 06:02:33;;;;;;;16.37;5.37;;;;;;;-145.18;100.00;60484.78;5085108;28;20098;-69
2021/07/20 06:05:01;;;;;;;13.30;5.37;;;;;;;-145.18;100.00;60484.78;5087340;28;20062;-69
2021/07/20 06:07:26;;;;;;;10.63;4.57;;;;;;;-145.18;100.00;60484.78;5101350;28;20020;-69
2021/07/20 06:09:53;;;;;;;12.13;5.07;;;;;;;-145.18;100.00;60484.78;5085896;28;20054;-69
2021/07/20 06:12:19;;;;;;;12.57;4.70;;;;;;;-145.18;100.00;60484.78;5090228;28;20035;-69
2021/07/20 06:14:47;;;;;;;11.77;4.97;;;;;;;-145.18;100.00;60484.78;5084829;28;20532;-68
2021/07/20 06:17:12;;;;;;;15.40;4.97;;;;;;;-145.18;100.00;60484.78;5089247;28;20024;-68
2021/07/20 06:19:39;;;;;;;12.60;4.33;;;;;;;-145.18;100.00;60484.78;5088222;28;20039;-69
2021/07/20 06:22:08;;;;;;;18.53;4.67;;;;;;;-145.18;100.00;60484.78;5096354;28;20729;-69
2021/07/20 06:24:39;;;;;;;12.47;4.67;;;;;;;-145.18;100.00;60484.78;5083877;28;20043;-68
2021/07/20 06:27:05;;;;;;;13.13;4.57;;;;;;;-145.18;100.00;60484.78;5087974;28;20027;-68
2021/07/20 06:29:32;;;;;;;13.30;4.27;;;;;;;-145.18;100.00;60484.78;5083550;28;20016;-69
2021/07/20 06:32:02;;;;;;;9.83;4.03;;;;;;;-145.18;100.00;60484.78;5087078;28;20035;-69
2021/07/20 06:34:29;;;;;;;13.20;4.80;;;;;;;-145.18;100.00;60484.78;5083245;28;20554;-68
2021/07/20 06:36:55;;;;;;;10.77;4.23;;;;;;;-145.18;100.00;60484.78;5086032;28;20106;-68
2021/07/20 06:39:21;;;;;;;11.97;4.37;;;;;;;-145.18;100.00;60484.78;5083153;28;20051;-68
2021/07/20 06:41:49;;;;;;;13.20;4.47;;;;;;;-145.18;100.00;60484.78;5084707;28;20055;-68
2021/07/20 06:44:17;;;;;;;10.77;3.77;;;;;;;-145.18;100.00;60484.78;5082718;28;20450;-68
2021/07/20 06:46:43;;;;;;;10.97;3.93;;;;;;;-145.18;100.00;60484.78;5084378;28;20020;-69
2021/07/20 06:49:16;;;;;;;11.57;3.50;;;;;;;-145.18;100.00;60484.78;5083249;28;20022;-69
2021/07/20 06:51:41;;;;;;;10.13;3.80;;;;;;;-145.18;100.00;60484.78;5084772;28;20609;-69
2021/07/20 06:54:08;;;;;;;8.10;3.43;;;;;;;-145.18;100.00;60484.78;5094738;28;20023;-68
2021/07/20 06:56:36;;;;;;;10.67;4.47;;;;;;;-145.18;100.00;60484.78;5083122;28;20465;-68
2021/07/20 06:59:03;;;;;;;11.57;4.00;;;;;;;-145.18;100.00;60484.78;5094144;28;20110;-68
2021/07/20 07:01:31;;;;;;;9.07;3.67;;;;;;;-145.18;100.00;60484.78;5082864;28;20031;-69
2021/07/20 07:04:33;;;;;;;10.03;3.70;;;;;;;-145.18;100.00;60484.78;5076394;28;20043;-69
2021/07/20 07:06:59;;;;;;;9.13;3.15;;;;;;;-145.18;100.00;60484.78;5073775;28;20035;-69
2021/07/20 07:09:27;;;;;;;10.27;3.47;;;;;;;-145.18;100.00;60484.78;5088771;28;20028;-69
2021/07/20 07:11:53;;;;;;;7.90;3.13;;;;;;;-145.18;100.00;60484.78;5086137;28;20024;-69
2021/07/20 07:14:19;;;;;;;8.67;3.23;;;;;;;-145.18;100.00;60484.78;5088460;28;20219;-69
2021/07/20 07:16:47;;;;;;;8.20;3.20;;;;;;;-145.18;100.00;60484.78;5084603;28;20024;-69
2021/07/20 07:19:19;;;;;;;8.13;3.10;;;;;;;-145.18;100.00;60484.78;5088693;28;20380;-69
2021/07/20 07:21:46;;;;;;;7.85;3.13;;;;;;;-145.18;100.00;60484.78;5081522;28;20028;-69
2021/07/20 07:24:16;;;;;;;13.97;3.87;;;;;;;-145.18;100.00;60484.78;5087803;28;20489;-68
2021/07/20 07:26:43;;;;;;;8.37;3.40;;;;;;;-145.18;100.00;60484.78;5083760;28;20012;-68
2021/07/20 07:29:10;;;;;;;11.23;3.03;;;;;;;-145.18;100.00;60484.78;5086661;28;20077;-69
2021/07/20 07:31:36;;;;;;;9.77;3.73;;;;;;;-145.18;100.00;60484.78;5083446;28;20020;-69
2021/07/20 07:34:02;;;;;;;8.67;3.43;;;;;;;-145.18;100.00;60484.78;5085515;28;20527;-69
2021/07/20 07:36:29;;;;;;;6.83;2.93;;;;;;;-145.18;100.00;60484.78;5081961;28;20031;-69
2021/07/20 07:38:55;;;;;;;12.70;2.77;;;;;;;-145.18;100.00;60484.78;5085096;28;20028;-69
2021/07/20 07:41:25;;;;;;;6.53;3.03;;;;;;;-145.18;100.00;60484.78;5082822;28;20723;-69
2021/07/20 07:43:53;;;;;;;8.23;2.60;;;;;;;-145.18;100.00;60484.78;5084026;28;20027;-69
2021/07/20 07:46:21;;;;;;;7.00;2.88;;;;;;;-145.18;100.00;60484.78;5082290;28;20487;-69
2021/07/20 07:48:47;;;;;;;8.47;2.80;;;;;;;-145.18;100.00;60484.78;5082621;28;20036;-68
2021/07/20 07:51:18;;;;;;;7.37;3.03;;;;;;;-145.18;100.00;60484.78;5082449;28;20035;-69
2021/07/20 07:53:44;;;;;;;7.00;2.90;;;;;;;-145.18;100.00;60484.78;5095593;28;20124;-69
2021/07/20 07:56:10;;;;;;;7.57;3.10;;;;;;;-145.18;100.00;60484.78;5082293;28;20928;-68
2021/07/20 07:58:37;;;;;;;8.10;2.63;;;;;;;-145.18;100.00;60484.78;5094390;28;20024;-69
2021/07/20 08:01:04;;;;;;;11.13;3.37;;;;;;;-145.18;100.00;60484.78;5082323;28;20024;-68
2021/07/20 08:03:33;;;;;;;9.95;3.33;;;;;;;-145.18;100.00;60484.78;5083137;28;20115;-69
2021/07/20 08:06:00;;;;;;;9.32;3.40;;;;;;;-145.18;100.00;60484.78;5081962;28;20043;-68
2021/07/20 08:08:28;;;;;;;7.78;3.25;;;;;;;-145.18;100.00;60484.78;5092030;28;20044;-68
2021/07/20 08:10:54;;;;;;;8.02;2.80;;;;;;;-145.18;100.00;60484.78;5082319;28;20665;-68
2021/07/20 08:13:21;;;;;;;11.98;3.00;;;;;;;-145.18;100.00;60484.78;5091147;28;20032;-68
2021/07/20 08:15:50;;;;;;;7.72;3.00;;;;;;;-145.18;100.00;60484.78;5082005;28;20690;-69
2021/07/20 08:18:17;;;;;;;9.15;2.53;;;;;;;-145.18;100.00;60484.78;5092562;28;20055;-68
2021/07/20 08:20:43;;;;;;;7.18;2.42;;;;;;;-145.18;100.00;60484.78;5085853;28;20688;-68
2021/07/20 08:23:09;;;;;;;7.07;2.50;;;;;;;-145.18;100.00;60484.78;5092682;28;20059;-69
2021/07/20 08:25:39;;;;;;;5.63;2.15;;;;;;;-145.18;100.00;60484.78;5085612;28;20051;-69
2021/07/20 08:28:09;;;;;;;4.65;2.08;;;;;;;-145.18;100.00;60484.78;5090937;28;20024;-69
2021/07/20 08:30:46;;;;;;;5.13;2.20;;;;;;;-145.18;100.00;60484.78;5085612;28;20028;-69
2021/07/20 08:33:20;;;;;;;5.93;2.03;;;;;;;-145.18;100.00;60484.78;5089726;28;20058;-69
2021/07/20 08:35:47;;;;;;;8.20;2.10;;;;;;;-145.18;100.00;60484.78;5085610;28;20024;-68
2021/07/20 08:38:14;;;;;;;6.13;2.17;;;;;;;-145.18;100.00;60484.78;5087921;28;20065;-68
2021/07/20 08:41:14;;;;;;;5.28;2.13;;;;;;;-145.18;100.00;60484.78;5085477;28;20020;-69
2021/07/20 08:44:19;;;;;;;5.43;1.90;;;;;;;-145.18;100.00;60484.78;5070519;28;20036;-68
2021/07/20 08:47:02;;;;;;;4.72;2.15;;;;;;;-145.18;100.00;60484.78;5002297;28;20666;-69
2021/07/20 08:50:26;;;;;;;5.57;2.45;;;;;;;-145.18;100.00;60484.78;5001977;28;20121;-68
2021/07/20 08:53:30;;;;;;;6.22;2.38;;;;;;;-145.18;100.00;60484.78;4897713;29;20123;-68
2021/07/20 08:55:59;;;;;;;5.22;2.28;;;;;;;-145.18;100.00;60484.78;4831272;29;20076;-68
2021/07/20 08:58:29;;;;;;;6.05;2.25;;;;;;;-145.18;100.00;60484.78;4847391;29;20166;-68
2021/07/20 09:01:24;;;;;;;5.22;2.22;;;;;;;-145.18;100.00;60484.78;4849662;29;20045;-68
2021/07/20 09:04:14;;;;;;;4.07;1.88;;;;;;;-145.18;100.00;60484.78;4849490;29;20077;-69
2021/07/20 09:06:48;;;;;;;5.53;2.10;;;;;;;-145.18;100.00;60484.78;4832486;29;20108;-69
2021/07/20 09:09:26;;;;;;;4.53;2.00;;;;;;;-145.18;100.00;60484.78;4849245;29;20102;-69
2021/07/20 09:12:29;;;;;;;5.03;2.20;;;;;;;-145.18;100.00;60484.78;4849822;29;20087;-68
2021/07/20 09:15:19;;;;;;;5.50;1.92;;;;;;;-145.18;100.00;60484.78;4847670;29;20061;-68
2021/07/20 09:18:08;;;;;;;5.40;2.15;;;;;;;-145.18;100.00;60484.78;4849353;29;20049;-68
2021/07/20 09:20:37;;;;;;;6.70;2.20;;;;;;;-145.18;100.00;60484.78;4849316;29;20053;-68
2021/07/20 09:23:17;;;;;;;6.25;2.33;;;;;;;-145.18;100.00;60484.78;4856677;29;20048;-68
2021/07/20 09:26:01;;;;;;;7.18;2.30;;;;;;;-145.18;100.00;60484.78;4905413;29;20702;-68
2021/07/20 09:28:49;;;;;;;5.50;2.28;;;;;;;-145.18;100.00;60484.78;4933028;28;20044;-69
2021/07/20 09:32:07;;;;;;;6.22;2.20;;;;;;;-145.18;100.00;60484.78;5013210;28;20029;-69
2021/07/20 09:35:14;;;;;;;6.53;2.60;;;;;;;-145.18;100.00;60484.78;4962405;28;20129;-68
2021/07/20 09:38:13;;;;;;;5.80;2.70;;;;;;;-145.18;100.00;60484.78;4964743;28;20051;-69
2021/07/20 09:40:57;;;;;;;5.25;2.30;;;;;;;-145.18;100.00;60484.78;4962061;28;20121;-69
2021/07/20 09:43:46;;;;;;;5.95;2.08;;;;;;;-145.18;100.00;60484.78;4964277;28;20098;-68
2021/07/20 09:46:19;;;;;;;5.10;2.22;;;;;;;-145.18;100.00;60484.78;4962951;28;20046;-68
2021/07/20 09:48:56;;;;;;;5.28;2.15;;;;;;;-145.18;100.00;60484.78;4963509;28;20065;-68
2021/07/20 09:52:11;;;;;;;6.22;2.10;;;;;;;-145.18;100.00;60484.78;4962616;28;20078;-68
2021/07/20 09:54:52;;;;;;;5.35;2.40;;;;;;;-145.18;100.00;60484.78;4957763;28;20050;-68
2021/07/20 09:57:56;;;;;;;4.60;2.08;;;;;;;-145.18;100.00;60484.78;4968579;28;20068;-69
2021/07/20 10:00:28;;;;;;;5.93;1.80;;;;;;;-145.18;100.00;60484.78;4904693;29;20038;-69
2021/07/20 10:03:39;;;;;;;5.53;2.05;;;;;;;-145.18;100.00;60484.78;4905592;29;20540;-69
2021/07/20 10:06:17;;;;;;;9.32;2.30;;;;;;;-145.18;100.00;60484.78;4916019;29;20168;-69
2021/07/20 10:08:58;;;;;;;5.00;2.00;;;;;;;-145.18;100.00;60484.78;4912808;29;20061;-69
2021/07/20 10:11:40;;;;;;;6.28;2.22;;;;;;;-145.18;100.00;60484.78;4942488;28;20034;-69
2021/07/20 10:14:39;;;;;;;5.32;2.03;;;;;;;-145.18;100.00;60484.78;4954467;28;20054;-69
2021/07/20 10:17:39;;;;;;;4.25;1.92;;;;;;;-145.18;100.00;60484.78;4961628;28;20042;-69
2021/07/20 10:20:18;;;;;;;5.45;2.13;;;;;;;-145.18;100.00;60484.78;4949969;28;20046;-68
2021/07/20 10:23:15;;;;;;;4.45;1.90;;;;;;;-145.18;100.00;60484.78;4961475;28;20050;-68
2021/07/20 10:26:20;;;;;;;4.78;2.10;;;;;;;-145.18;100.00;60484.78;4961649;28;20435;-68
2021/07/20 10:28:59;;;;;;;3.78;1.70;;;;;;;-145.18;100.00;60484.78;4961711;28;20038;-69
2021/07/20 10:31:47;;;;;;;5.07;2.15;;;;;;;-145.18;100.00;60484.78;4961548;28;20038;-69
2021/07/20 10:34:18;;;;;;;6.30;2.13;;;;;;;-145.18;100.00;60484.78;4960040;28;20295;-68
2021/07/20 10:37:12;;;;;;;4.82;2.20;;;;;;;-145.18;100.00;60484.78;4971550;28;20099;-68
2021/07/20 10:39:44;;;;;;;6.95;2.20;;;;;;;-145.18;100.00;60484.78;5023543;28;20475;-68
2021/07/20 10:42:16;;;;;;;5.03;2.13;;;;;;;-145.18;100.00;60484.78;5070857;28;20043;-68
2021/07/20 10:44:58;;;;;;;5.68;2.22;;;;;;;-145.18;100.00;60484.78;5083058;28;20023;-68
2021/07/20 10:47:30;;;;;;;4.78;1.98;;;;;;;-145.18;100.00;60484.78;5084109;28;20099;-68
2021/07/20 10:50:04;;;;;;;9.95;2.60;;;;;;;-145.18;100.00;60484.78;5082856;28;20134;-68
2021/07/20 10:53:01;;;;;;;6.38;2.38;;;;;;;-145.18;100.00;60484.78;5091079;28;20027;-68
2021/07/20 10:56:04;;;;;;;4.68;2.30;;;;;;;-145.18;100.00;60484.78;5083400;28;20024;-69
2021/07/20 10:58:56;;;;;;;4.90;1.98;;;;;;;-145.18;100.00;60484.78;5095017;28;20554;-69
2021/07/20 11:01:29;;;;;;;6.35;1.83;;;;;;;-145.18;100.00;60484.78;5083479;28;20081;-69
2021/07/20 11:05:02;;;;;;;4.85;2.00;;;;;;;-145.18;100.00;60484.78;5075350;28;20028;-69
2021/07/20 11:07:50;;;;;;;6.75;2.03;;;;;;;-145.18;100.00;60484.78;4981355;28;20398;-69
2021/07/20 11:10:47;;;;;;;7.03;1.88;;;;;;;-145.18;100.00;60484.78;4980262;28;20038;-69
2021/07/20 11:13:18;;;;;;;5.07;2.00;;;;;;;-145.18;100.00;60484.78;5003048;28;20072;-69
2021/07/20 11:15:53;;;;;;;4.78;1.95;;;;;;;-145.18;100.00;60484.78;4998268;28;20045;-69
2021/07/20 11:18:23;;;;;;;4.78;1.75;;;;;;;-145.18;100.00;60484.78;5001933;28;20057;-69
2021/07/20 11:20:50;;;;;;;4.85;1.90;;;;;;;-145.18;100.00;60484.78;4999708;28;20042;-70
2021/07/20 11:23:19;;;;;;;4.65;1.90;;;;;;;-145.18;100.00;60484.78;5007148;28;20097;-69
2021/07/20 11:25:47;;;;;;;4.13;1.80;;;;;;;-145.18;100.00;60484.78;5003997;28;20088;-69
2021/07/20 11:28:13;;;;;;;5.85;2.03;;;;;;;-145.18;100.00;60484.78;5013383;28;20083;-69
2021/07/20 11:30:40;;;;;;;6.05;2.10;;;;;;;-145.18;100.00;60484.78;5004183;28;20069;-69
2021/07/20 11:33:16;;;;;;;4.40;1.80;;;;;;;-145.18;100.00;60484.78;5004512;28;20041;-69